sensor_id;sensor_type;location;lat;lon;timestamp;P1;durP1;ratioP1;P2;durP2;ratioP2
46717;SDS011;32448;44.960;-0.698;2022-08-19T00:01:53;7.28;;;4.80;;
46717;SDS011;32448;44.960;-0.698;2022-08-19T00:04:21;6.05;;;4.00;;
46717;SDS011;32448;44.960;-0.698;2022-08-19T00:06:49;8.95;;;4.20;;
46717;SDS011;32448;44.960;-0.698;2022-08-19T00:09:17;8.02;;;4.75;;
46717;SDS011;32448;44.960;-0.698;2022-08-19T00:11:44;8.07;;;4.47;;
46717;SDS011;32448;44.960;-0.698;2022-08-19T00:14:11;6.38;;;4.22;;
46717;SDS011;32448;44.960;-0.698;2022-08-19T00:16:41;6.05;;;4.40;;
46717;SDS011;32448;44.960;-0.698;2022-08-19T00:19:08;7.95;;;4.47;;
46717;SDS011;32448;44.960;-0.698;2022-08-19T00:21:35;6.60;;;4.10;;
46717;SDS011;32448;44.960;-0.698;2022-08-19T00:24:05;7.47;;;4.78;;
46717;SDS011;32448;44.960;-0.698;2022-08-19T00:26:32;8.13;;;4.40;;
46717;SDS011;32448;44.960;-0.698;2022-08-19T00:28:58;4.75;;;4.18;;
46717;SDS011;32448;44.960;-0.698;2022-08-19T00:31:25;6.18;;;3.78;;
46717;SDS011;32448;44.960;-0.698;2022-08-19T00:33:53;6.53;;;3.97;;
46717;SDS011;32448;44.960;-0.698;2022-08-19T00:36:19;6.70;;;4.03;;
46717;SDS011;32448;44.960;-0.698;2022-08-19T00:38:45;7.25;;;4.03;;
46717;SDS011;32448;44.960;-0.698;2022-08-19T00:41:15;6.97;;;3.85;;
46717;SDS011;32448;44.960;-0.698;2022-08-19T00:43:56;7.85;;;3.75;;
46717;SDS011;32448;44.960;-0.698;2022-08-19T00:46:33;7.10;;;4.60;;
46717;SDS011;32448;44.960;-0.698;2022-08-19T00:49:02;8.13;;;4.50;;
46717;SDS011;32448;44.960;-0.698;2022-08-19T00:51:40;6.68;;;4.32;;
46717;SDS011;32448;44.960;-0.698;2022-08-19T00:54:08;9.50;;;4.57;;
46717;SDS011;32448;44.960;-0.698;2022-08-19T00:56:34;6.70;;;4.72;;
46717;SDS011;32448;44.960;-0.698;2022-08-19T00:59:01;8.05;;;4.43;;
46717;SDS011;32448;44.960;-0.698;2022-08-19T01:01:33;6.80;;;4.25;;
46717;SDS011;32448;44.960;-0.698;2022-08-19T01:03:59;6.82;;;4.05;;
46717;SDS011;32448;44.960;-0.698;2022-08-19T01:06:25;5.95;;;3.90;;
46717;SDS011;32448;44.960;-0.698;2022-08-19T01:08:51;9.32;;;4.90;;
46717;SDS011;32448;44.960;-0.698;2022-08-19T01:11:17;5.60;;;4.35;;
46717;SDS011;32448;44.960;-0.698;2022-08-19T01:13:43;5.75;;;4.07;;
46717;SDS011;32448;44.960;-0.698;2022-08-19T01:16:11;7.32;;;4.88;;
46717;SDS011;32448;44.960;-0.698;2022-08-19T01:18:39;11.07;;;5.10;;
46717;SDS011;32448;44.960;-0.698;2022-08-19T01:21:18;6.45;;;4.15;;
46717;SDS011;32448;44.960;-0.698;2022-08-19T01:24:03;8.40;;;4.50;;
46717;SDS011;32448;44.960;-0.698;2022-08-19T01:26:29;10.02;;;4.35;;
46717;SDS011;32448;44.960;-0.698;2022-08-19T01:28:57;7.50;;;4.30;;
46717;SDS011;32448;44.960;-0.698;2022-08-19T01:31:24;6.53;;;4.55;;
46717;SDS011;32448;44.960;-0.698;2022-08-19T01:33:55;8.90;;;4.47;;
46717;SDS011;32448;44.960;-0.698;2022-08-19T01:36:23;10.82;;;4.68;;
46717;SDS011;32448;44.960;-0.698;2022-08-19T01:38:53;8.50;;;4.97;;
46717;SDS011;32448;44.960;-0.698;2022-08-19T01:41:19;7.85;;;4.32;;
46717;SDS011;32448;44.960;-0.698;2022-08-19T01:43:45;7.20;;;4.10;;
46717;SDS011;32448;44.960;-0.698;2022-08-19T01:46:11;7.25;;;4.72;;
46717;SDS011;32448;44.960;-0.698;2022-08-19T01:48:39;6.25;;;4.47;;
46717;SDS011;32448;44.960;-0.698;2022-08-19T01:51:06;6.32;;;4.55;;
46717;SDS011;32448;44.960;-0.698;2022-08-19T01:53:33;6.38;;;4.40;;
46717;SDS011;32448;44.960;-0.698;2022-08-19T01:56:00;8.43;;;4.65;;
46717;SDS011;32448;44.960;-0.698;2022-08-19T01:58:29;7.63;;;4.70;;
46717;SDS011;32448;44.960;-0.698;2022-08-19T02:01:01;6.75;;;4.10;;
46717;SDS011;32448;44.960;-0.698;2022-08-19T02:03:27;7.55;;;4.88;;
46717;SDS011;32448;44.960;-0.698;2022-08-19T02:05:58;9.70;;;4.60;;
46717;SDS011;32448;44.960;-0.698;2022-08-19T02:08:29;8.10;;;4.47;;
46717;SDS011;32448;44.960;-0.698;2022-08-19T02:10:56;5.35;;;3.88;;
46717;SDS011;32448;44.960;-0.698;2022-08-19T02:13:22;7.07;;;4.63;;
46717;SDS011;32448;44.960;-0.698;2022-08-19T02:15:49;7.03;;;4.30;;
46717;SDS011;32448;44.960;-0.698;2022-08-19T02:18:15;7.70;;;4.18;;
46717;SDS011;32448;44.960;-0.698;2022-08-19T02:20:41;6.45;;;4.28;;
46717;SDS011;32448;44.960;-0.698;2022-08-19T02:23:09;6.78;;;3.92;;
46717;SDS011;32448;44.960;-0.698;2022-08-19T02:25:37;8.95;;;4.90;;
46717;SDS011;32448;44.960;-0.698;2022-08-19T02:28:03;7.63;;;4.32;;
46717;SDS011;32448;44.960;-0.698;2022-08-19T02:30:30;10.02;;;4.90;;
46717;SDS011;32448;44.960;-0.698;2022-08-19T02:32:56;8.35;;;4.30;;
46717;SDS011;32448;44.960;-0.698;2022-08-19T02:35:22;6.20;;;4.53;;
46717;SDS011;32448;44.960;-0.698;2022-08-19T02:37:49;9.18;;;4.88;;
46717;SDS011;32448;44.960;-0.698;2022-08-19T02:40:33;9.48;;;5.00;;
46717;SDS011;32448;44.960;-0.698;2022-08-19T02:43:06;8.02;;;4.15;;
46717;SDS011;32448;44.960;-0.698;2022-08-19T02:45:37;9.77;;;4.97;;
46717;SDS011;32448;44.960;-0.698;2022-08-19T02:48:05;9.27;;;4.65;;
46717;SDS011;32448;44.960;-0.698;2022-08-19T02:50:31;8.98;;;3.70;;
46717;SDS011;32448;44.960;-0.698;2022-08-19T02:52:57;7.25;;;4.18;;
46717;SDS011;32448;44.960;-0.698;2022-08-19T02:55:23;10.10;;;4.88;;
46717;SDS011;32448;44.960;-0.698;2022-08-19T02:57:49;6.63;;;4.32;;
46717;SDS011;32448;44.960;-0.698;2022-08-19T03:00:15;9.27;;;4.78;;
46717;SDS011;32448;44.960;-0.698;2022-08-19T03:02:41;6.15;;;4.68;;
46717;SDS011;32448;44.960;-0.698;2022-08-19T03:05:08;9.70;;;4.72;;
46717;SDS011;32448;44.960;-0.698;2022-08-19T03:07:35;9.40;;;4.85;;
46717;SDS011;32448;44.960;-0.698;2022-08-19T03:10:02;7.65;;;3.95;;
46717;SDS011;32448;44.960;-0.698;2022-08-19T03:12:28;6.00;;;4.28;;
46717;SDS011;32448;44.960;-0.698;2022-08-19T03:14:54;6.05;;;4.57;;
46717;SDS011;32448;44.960;-0.698;2022-08-19T03:17:19;6.72;;;4.57;;
46717;SDS011;32448;44.960;-0.698;2022-08-19T03:19:45;7.28;;;4.55;;
46717;SDS011;32448;44.960;-0.698;2022-08-19T03:22:10;7.93;;;4.47;;
46717;SDS011;32448;44.960;-0.698;2022-08-19T03:24:37;8.10;;;4.50;;
46717;SDS011;32448;44.960;-0.698;2022-08-19T03:27:03;8.50;;;4.85;;
46717;SDS011;32448;44.960;-0.698;2022-08-19T03:29:30;9.75;;;4.80;;
46717;SDS011;32448;44.960;-0.698;2022-08-19T03:32:00;9.43;;;4.65;;
46717;SDS011;32448;44.960;-0.698;2022-08-19T03:34:29;6.82;;;4.55;;
46717;SDS011;32448;44.960;-0.698;2022-08-19T03:36:58;7.38;;;4.70;;
46717;SDS011;32448;44.960;-0.698;2022-08-19T03:39:28;6.95;;;4.80;;
46717;SDS011;32448;44.960;-0.698;2022-08-19T03:41:54;5.72;;;4.40;;
46717;SDS011;32448;44.960;-0.698;2022-08-19T03:44:25;6.30;;;4.47;;
46717;SDS011;32448;44.960;-0.698;2022-08-19T03:46:52;6.80;;;4.30;;
46717;SDS011;32448;44.960;-0.698;2022-08-19T03:49:20;6.10;;;4.35;;
46717;SDS011;32448;44.960;-0.698;2022-08-19T03:51:48;8.32;;;4.82;;
46717;SDS011;32448;44.960;-0.698;2022-08-19T03:54:16;8.27;;;4.65;;
46717;SDS011;32448;44.960;-0.698;2022-08-19T03:56:44;7.32;;;4.38;;
46717;SDS011;32448;44.960;-0.698;2022-08-19T03:59:14;7.45;;;4.32;;
46717;SDS011;32448;44.960;-0.698;2022-08-19T04:01:41;11.20;;;4.93;;
46717;SDS011;32448;44.960;-0.698;2022-08-19T04:04:07;6.35;;;4.57;;
46717;SDS011;32448;44.960;-0.698;2022-08-19T04:06:34;4.82;;;4.32;;
46717;SDS011;32448;44.960;-0.698;2022-08-19T04:09:03;6.82;;;4.38;;
46717;SDS011;32448;44.960;-0.698;2022-08-19T04:11:33;8.52;;;4.72;;
46717;SDS011;32448;44.960;-0.698;2022-08-19T04:14:01;6.88;;;4.57;;
46717;SDS011;32448;44.960;-0.698;2022-08-19T04:16:27;9.82;;;4.70;;
46717;SDS011;32448;44.960;-0.698;2022-08-19T04:18:54;9.52;;;4.82;;
46717;SDS011;32448;44.960;-0.698;2022-08-19T04:21:23;7.05;;;4.88;;
46717;SDS011;32448;44.960;-0.698;2022-08-19T04:23:51;6.30;;;4.70;;
46717;SDS011;32448;44.960;-0.698;2022-08-19T04:26:19;7.63;;;4.47;;
46717;SDS011;32448;44.960;-0.698;2022-08-19T04:28:47;6.30;;;4.70;;
46717;SDS011;32448;44.960;-0.698;2022-08-19T04:31:15;7.95;;;4.50;;
46717;SDS011;32448;44.960;-0.698;2022-08-19T04:33:45;6.90;;;4.65;;
46717;SDS011;32448;44.960;-0.698;2022-08-19T04:36:18;8.73;;;4.55;;
46717;SDS011;32448;44.960;-0.698;2022-08-19T04:38:47;7.35;;;4.70;;
46717;SDS011;32448;44.960;-0.698;2022-08-19T04:41:13;6.20;;;4.32;;
46717;SDS011;32448;44.960;-0.698;2022-08-19T04:43:58;4.95;;;4.38;;
46717;SDS011;32448;44.960;-0.698;2022-08-19T04:46:24;9.40;;;4.72;;
46717;SDS011;32448;44.960;-0.698;2022-08-19T04:48:50;9.70;;;5.07;;
46717;SDS011;32448;44.960;-0.698;2022-08-19T04:51:16;9.20;;;4.57;;
46717;SDS011;32448;44.960;-0.698;2022-08-19T04:53:42;6.57;;;4.55;;
46717;SDS011;32448;44.960;-0.698;2022-08-19T04:56:10;7.57;;;4.78;;
46717;SDS011;32448;44.960;-0.698;2022-08-19T04:58:38;6.03;;;4.57;;
46717;SDS011;32448;44.960;-0.698;2022-08-19T05:01:08;7.80;;;4.13;;
46717;SDS011;32448;44.960;-0.698;2022-08-19T05:03:36;8.23;;;4.72;;
46717;SDS011;32448;44.960;-0.698;2022-08-19T05:06:10;6.72;;;4.20;;
46717;SDS011;32448;44.960;-0.698;2022-08-19T05:08:39;8.25;;;4.53;;
46717;SDS011;32448;44.960;-0.698;2022-08-19T05:13:45;8.23;;;4.65;;
46717;SDS011;32448;44.960;-0.698;2022-08-19T05:16:14;5.63;;;4.70;;
46717;SDS011;32448;44.960;-0.698;2022-08-19T05:18:42;7.43;;;4.68;;
46717;SDS011;32448;44.960;-0.698;2022-08-19T05:21:28;5.93;;;4.70;;
46717;SDS011;32448;44.960;-0.698;2022-08-19T05:24:13;8.25;;;4.70;;
46717;SDS011;32448;44.960;-0.698;2022-08-19T05:26:41;7.28;;;4.45;;
46717;SDS011;32448;44.960;-0.698;2022-08-19T05:29:10;6.88;;;4.63;;
46717;SDS011;32448;44.960;-0.698;2022-08-19T05:31:36;6.45;;;4.60;;
46717;SDS011;32448;44.960;-0.698;2022-08-19T05:34:04;4.75;;;4.20;;
46717;SDS011;32448;44.960;-0.698;2022-08-19T05:36:33;7.30;;;4.80;;
46717;SDS011;32448;44.960;-0.698;2022-08-19T05:39:05;8.02;;;4.78;;
46717;SDS011;32448;44.960;-0.698;2022-08-19T05:41:32;7.78;;;4.85;;
46717;SDS011;32448;44.960;-0.698;2022-08-19T05:43:58;6.80;;;4.85;;
46717;SDS011;32448;44.960;-0.698;2022-08-19T05:46:27;8.30;;;4.30;;
46717;SDS011;32448;44.960;-0.698;2022-08-19T05:48:54;8.38;;;4.95;;
46717;SDS011;32448;44.960;-0.698;2022-08-19T05:51:22;5.85;;;4.63;;
46717;SDS011;32448;44.960;-0.698;2022-08-19T05:53:48;5.82;;;4.50;;
46717;SDS011;32448;44.960;-0.698;2022-08-19T05:56:14;8.70;;;4.78;;
46717;SDS011;32448;44.960;-0.698;2022-08-19T05:58:42;7.18;;;5.03;;
46717;SDS011;32448;44.960;-0.698;2022-08-19T06:01:10;8.43;;;4.80;;
46717;SDS011;32448;44.960;-0.698;2022-08-19T06:03:39;7.38;;;4.47;;
46717;SDS011;32448;44.960;-0.698;2022-08-19T06:06:06;7.35;;;4.75;;
46717;SDS011;32448;44.960;-0.698;2022-08-19T06:08:34;6.20;;;4.80;;
46717;SDS011;32448;44.960;-0.698;2022-08-19T06:11:22;8.02;;;4.80;;
46717;SDS011;32448;44.960;-0.698;2022-08-19T06:13:59;7.20;;;4.75;;
46717;SDS011;32448;44.960;-0.698;2022-08-19T06:16:27;8.10;;;5.00;;
46717;SDS011;32448;44.960;-0.698;2022-08-19T06:18:58;8.38;;;5.28;;
46717;SDS011;32448;44.960;-0.698;2022-08-19T06:21:27;7.43;;;5.22;;
46717;SDS011;32448;44.960;-0.698;2022-08-19T06:23:54;7.25;;;4.53;;
46717;SDS011;32448;44.960;-0.698;2022-08-19T06:26:21;6.70;;;5.20;;
46717;SDS011;32448;44.960;-0.698;2022-08-19T06:28:47;8.88;;;4.97;;
46717;SDS011;32448;44.960;-0.698;2022-08-19T06:31:14;6.85;;;4.90;;
46717;SDS011;32448;44.960;-0.698;2022-08-19T06:33:45;7.13;;;5.38;;
46717;SDS011;32448;44.960;-0.698;2022-08-19T06:36:20;7.72;;;4.43;;
46717;SDS011;32448;44.960;-0.698;2022-08-19T06:39:12;7.30;;;4.63;;
46717;SDS011;32448;44.960;-0.698;2022-08-19T06:41:50;7.50;;;4.85;;
46717;SDS011;32448;44.960;-0.698;2022-08-19T06:44:18;7.38;;;4.55;;
46717;SDS011;32448;44.960;-0.698;2022-08-19T06:46:54;7.95;;;4.80;;
46717;SDS011;32448;44.960;-0.698;2022-08-19T06:49:27;7.00;;;4.40;;
46717;SDS011;32448;44.960;-0.698;2022-08-19T06:51:56;7.20;;;4.40;;
46717;SDS011;32448;44.960;-0.698;2022-08-19T06:54:23;8.07;;;4.28;;
46717;SDS011;32448;44.960;-0.698;2022-08-19T06:56:55;11.07;;;4.70;;
46717;SDS011;32448;44.960;-0.698;2022-08-19T06:59:22;7.75;;;4.18;;
46717;SDS011;32448;44.960;-0.698;2022-08-19T07:01:53;5.45;;;3.97;;
46717;SDS011;32448;44.960;-0.698;2022-08-19T07:04:23;7.55;;;4.70;;
46717;SDS011;32448;44.960;-0.698;2022-08-19T07:07:03;10.43;;;4.10;;
46717;SDS011;32448;44.960;-0.698;2022-08-19T07:09:37;6.20;;;3.53;;
46717;SDS011;32448;44.960;-0.698;2022-08-19T07:12:09;8.70;;;3.42;;
46717;SDS011;32448;44.960;-0.698;2022-08-19T07:14:38;6.10;;;3.45;;
46717;SDS011;32448;44.960;-0.698;2022-08-19T07:17:06;7.00;;;3.60;;
46717;SDS011;32448;44.960;-0.698;2022-08-19T07:19:34;4.53;;;3.15;;
46717;SDS011;32448;44.960;-0.698;2022-08-19T07:22:05;6.40;;;3.05;;
46717;SDS011;32448;44.960;-0.698;2022-08-19T07:24:37;5.13;;;2.80;;
46717;SDS011;32448;44.960;-0.698;2022-08-19T07:27:07;6.00;;;2.95;;
46717;SDS011;32448;44.960;-0.698;2022-08-19T07:29:35;5.03;;;2.92;;
46717;SDS011;32448;44.960;-0.698;2022-08-19T07:32:05;5.20;;;2.97;;
46717;SDS011;32448;44.960;-0.698;2022-08-19T07:34:32;6.28;;;2.85;;
46717;SDS011;32448;44.960;-0.698;2022-08-19T07:37:05;8.70;;;3.08;;
46717;SDS011;32448;44.960;-0.698;2022-08-19T07:39:33;3.78;;;2.38;;
46717;SDS011;32448;44.960;-0.698;2022-08-19T07:42:03;6.18;;;2.58;;
46717;SDS011;32448;44.960;-0.698;2022-08-19T07:44:36;3.90;;;2.30;;
46717;SDS011;32448;44.960;-0.698;2022-08-19T07:47:06;3.28;;;1.90;;
46717;SDS011;32448;44.960;-0.698;2022-08-19T07:49:32;6.47;;;2.10;;
46717;SDS011;32448;44.960;-0.698;2022-08-19T07:52:04;5.55;;;2.00;;
46717;SDS011;32448;44.960;-0.698;2022-08-19T07:54:35;5.47;;;1.90;;
46717;SDS011;32448;44.960;-0.698;2022-08-19T07:57:03;5.68;;;1.92;;
46717;SDS011;32448;44.960;-0.698;2022-08-19T07:59:31;6.10;;;2.17;;
46717;SDS011;32448;44.960;-0.698;2022-08-19T08:01:57;5.38;;;2.35;;
46717;SDS011;32448;44.960;-0.698;2022-08-19T08:04:25;3.60;;;1.50;;
46717;SDS011;32448;44.960;-0.698;2022-08-19T08:07:11;6.95;;;2.00;;
46717;SDS011;32448;44.960;-0.698;2022-08-19T08:09:55;4.82;;;1.60;;
46717;SDS011;32448;44.960;-0.698;2022-08-19T08:12:23;5.10;;;1.80;;
46717;SDS011;32448;44.960;-0.698;2022-08-19T08:14:57;4.22;;;1.75;;
46717;SDS011;32448;44.960;-0.698;2022-08-19T08:17:26;3.60;;;1.60;;
46717;SDS011;32448;44.960;-0.698;2022-08-19T08:19:54;4.10;;;1.60;;
46717;SDS011;32448;44.960;-0.698;2022-08-19T08:22:20;5.45;;;1.60;;
46717;SDS011;32448;44.960;-0.698;2022-08-19T08:25:06;8.60;;;1.70;;
46717;SDS011;32448;44.960;-0.698;2022-08-19T08:27:36;4.55;;;1.67;;
46717;SDS011;32448;44.960;-0.698;2022-08-19T08:30:06;2.22;;;1.45;;
46717;SDS011;32448;44.960;-0.698;2022-08-19T08:32:34;3.88;;;1.63;;
46717;SDS011;32448;44.960;-0.698;2022-08-19T08:35:05;2.47;;;1.42;;
46717;SDS011;32448;44.960;-0.698;2022-08-19T08:37:33;3.78;;;1.38;;
46717;SDS011;32448;44.960;-0.698;2022-08-19T08:40:02;4.07;;;1.77;;
46717;SDS011;32448;44.960;-0.698;2022-08-19T08:42:32;2.88;;;1.42;;
46717;SDS011;32448;44.960;-0.698;2022-08-19T08:45:06;3.78;;;1.67;;
46717;SDS011;32448;44.960;-0.698;2022-08-19T08:47:41;2.85;;;1.50;;
46717;SDS011;32448;44.960;-0.698;2022-08-19T08:53:08;3.25;;;1.60;;
46717;SDS011;32448;44.960;-0.698;2022-08-19T08:55:36;7.05;;;2.13;;
46717;SDS011;32448;44.960;-0.698;2022-08-19T08:58:06;3.20;;;1.20;;
46717;SDS011;32448;44.960;-0.698;2022-08-19T09:00:46;6.13;;;1.60;;
46717;SDS011;32448;44.960;-0.698;2022-08-19T09:03:20;3.58;;;2.15;;
46717;SDS011;32448;44.960;-0.698;2022-08-19T09:06:02;5.43;;;1.33;;
46717;SDS011;32448;44.960;-0.698;2022-08-19T09:11:03;3.20;;;1.73;;
46717;SDS011;32448;44.960;-0.698;2022-08-19T09:13:44;3.15;;;1.30;;
46717;SDS011;32448;44.960;-0.698;2022-08-19T09:16:18;5.10;;;1.70;;
46717;SDS011;32448;44.960;-0.698;2022-08-19T09:21:12;3.35;;;1.55;;
46717;SDS011;32448;44.960;-0.698;2022-08-19T09:23:41;3.90;;;1.33;;
46717;SDS011;32448;44.960;-0.698;2022-08-19T09:26:12;3.05;;;1.60;;
46717;SDS011;32448;44.960;-0.698;2022-08-19T09:28:43;4.55;;;1.50;;
46717;SDS011;32448;44.960;-0.698;2022-08-19T09:31:19;2.47;;;1.63;;
46717;SDS011;32448;44.960;-0.698;2022-08-19T09:33:57;3.65;;;1.48;;
46717;SDS011;32448;44.960;-0.698;2022-08-19T09:36:23;2.28;;;1.27;;
46717;SDS011;32448;44.960;-0.698;2022-08-19T09:39:05;6.45;;;1.55;;
46717;SDS011;32448;44.960;-0.698;2022-08-19T09:41:31;2.03;;;1.38;;
46717;SDS011;32448;44.960;-0.698;2022-08-19T09:44:03;3.92;;;1.58;;
46717;SDS011;32448;44.960;-0.698;2022-08-19T09:46:30;5.90;;;1.55;;
46717;SDS011;32448;44.960;-0.698;2022-08-19T09:48:57;3.65;;;1.60;;
46717;SDS011;32448;44.960;-0.698;2022-08-19T09:51:27;4.22;;;1.48;;
46717;SDS011;32448;44.960;-0.698;2022-08-19T09:54:01;2.08;;;1.50;;
46717;SDS011;32448;44.960;-0.698;2022-08-19T09:56:29;3.03;;;1.30;;
46717;SDS011;32448;44.960;-0.698;2022-08-19T09:58:57;5.75;;;2.15;;
46717;SDS011;32448;44.960;-0.698;2022-08-19T10:01:26;6.43;;;1.42;;
46717;SDS011;32448;44.960;-0.698;2022-08-19T10:03:55;4.50;;;1.40;;
46717;SDS011;32448;44.960;-0.698;2022-08-19T10:06:24;3.00;;;1.20;;
46717;SDS011;32448;44.960;-0.698;2022-08-19T10:08:55;3.47;;;1.35;;
46717;SDS011;32448;44.960;-0.698;2022-08-19T10:11:22;3.22;;;1.17;;
46717;SDS011;32448;44.960;-0.698;2022-08-19T10:13:48;3.88;;;1.08;;
46717;SDS011;32448;44.960;-0.698;2022-08-19T10:16:15;3.17;;;1.70;;
46717;SDS011;32448;44.960;-0.698;2022-08-19T10:18:44;3.35;;;1.33;;
46717;SDS011;32448;44.960;-0.698;2022-08-19T10:21:12;4.38;;;1.42;;
46717;SDS011;32448;44.960;-0.698;2022-08-19T10:23:44;2.03;;;1.23;;
46717;SDS011;32448;44.960;-0.698;2022-08-19T10:26:13;3.78;;;1.10;;
46717;SDS011;32448;44.960;-0.698;2022-08-19T10:28:41;2.55;;;1.08;;
46717;SDS011;32448;44.960;-0.698;2022-08-19T10:31:11;3.85;;;1.40;;
46717;SDS011;32448;44.960;-0.698;2022-08-19T10:33:41;1.77;;;1.05;;
46717;SDS011;32448;44.960;-0.698;2022-08-19T10:36:08;4.45;;;1.38;;
46717;SDS011;32448;44.960;-0.698;2022-08-19T10:38:36;1.73;;;0.90;;
46717;SDS011;32448;44.960;-0.698;2022-08-19T10:41:07;3.30;;;1.40;;
46717;SDS011;32448;44.960;-0.698;2022-08-19T10:43:37;2.15;;;0.95;;
46717;SDS011;32448;44.960;-0.698;2022-08-19T10:46:04;4.80;;;1.00;;
46717;SDS011;32448;44.960;-0.698;2022-08-19T10:48:40;2.05;;;1.05;;
46717;SDS011;32448;44.960;-0.698;2022-08-19T10:51:08;2.95;;;1.35;;
46717;SDS011;32448;44.960;-0.698;2022-08-19T10:53:53;3.17;;;1.85;;
46717;SDS011;32448;44.960;-0.698;2022-08-19T10:56:23;2.15;;;1.38;;
46717;SDS011;32448;44.960;-0.698;2022-08-19T10:59:08;3.05;;;1.65;;
46717;SDS011;32448;44.960;-0.698;2022-08-19T11:01:34;3.58;;;1.85;;
46717;SDS011;32448;44.960;-0.698;2022-08-19T11:04:01;6.68;;;1.50;;
46717;SDS011;32448;44.960;-0.698;2022-08-19T11:06:29;7.13;;;1.73;;
46717;SDS011;32448;44.960;-0.698;2022-08-19T11:08:57;3.85;;;1.35;;
46717;SDS011;32448;44.960;-0.698;2022-08-19T11:11:23;3.28;;;1.20;;
46717;SDS011;32448;44.960;-0.698;2022-08-19T11:13:49;3.60;;;1.70;;
46717;SDS011;32448;44.960;-0.698;2022-08-19T11:16:16;1.88;;;1.15;;
46717;SDS011;32448;44.960;-0.698;2022-08-19T11:18:50;1.90;;;1.15;;
46717;SDS011;32448;44.960;-0.698;2022-08-19T11:21:21;2.13;;;1.30;;
46717;SDS011;32448;44.960;-0.698;2022-08-19T11:23:51;3.03;;;1.00;;
46717;SDS011;32448;44.960;-0.698;2022-08-19T11:26:19;2.05;;;0.95;;
46717;SDS011;32448;44.960;-0.698;2022-08-19T11:28:46;3.85;;;1.45;;
46717;SDS011;32448;44.960;-0.698;2022-08-19T11:31:12;2.60;;;1.30;;
46717;SDS011;32448;44.960;-0.698;2022-08-19T11:33:41;2.47;;;1.10;;
46717;SDS011;32448;44.960;-0.698;2022-08-19T11:36:07;2.03;;;0.90;;
46717;SDS011;32448;44.960;-0.698;2022-08-19T11:38:33;3.53;;;0.80;;
46717;SDS011;32448;44.960;-0.698;2022-08-19T11:41:03;3.15;;;1.00;;
46717;SDS011;32448;44.960;-0.698;2022-08-19T11:43:31;1.10;;;0.90;;
46717;SDS011;32448;44.960;-0.698;2022-08-19T11:45:57;1.67;;;0.90;;
46717;SDS011;32448;44.960;-0.698;2022-08-19T11:48:23;1.85;;;0.90;;
46717;SDS011;32448;44.960;-0.698;2022-08-19T11:50:53;1.88;;;0.90;;
46717;SDS011;32448;44.960;-0.698;2022-08-19T11:53:23;3.35;;;0.98;;
46717;SDS011;32448;44.960;-0.698;2022-08-19T11:55:50;2.05;;;0.80;;
46717;SDS011;32448;44.960;-0.698;2022-08-19T11:58:23;3.20;;;1.00;;
46717;SDS011;32448;44.960;-0.698;2022-08-19T12:00:53;3.57;;;0.90;;
46717;SDS011;32448;44.960;-0.698;2022-08-19T12:03:18;2.88;;;0.95;;
46717;SDS011;32448;44.960;-0.698;2022-08-19T12:09:07;1.17;;;0.90;;
46717;SDS011;32448;44.960;-0.698;2022-08-19T12:11:34;1.42;;;0.98;;
46717;SDS011;32448;44.960;-0.698;2022-08-19T12:14:02;3.35;;;0.98;;
46717;SDS011;32448;44.960;-0.698;2022-08-19T12:16:30;2.25;;;1.13;;
46717;SDS011;32448;44.960;-0.698;2022-08-19T12:18:57;2.55;;;0.82;;
46717;SDS011;32448;44.960;-0.698;2022-08-19T12:21:29;2.67;;;0.95;;
46717;SDS011;32448;44.960;-0.698;2022-08-19T12:23:57;2.60;;;0.80;;
46717;SDS011;32448;44.960;-0.698;2022-08-19T12:26:24;2.40;;;0.57;;
46717;SDS011;32448;44.960;-0.698;2022-08-19T12:28:51;2.70;;;1.02;;
46717;SDS011;32448;44.960;-0.698;2022-08-19T12:31:21;4.95;;;1.30;;
46717;SDS011;32448;44.960;-0.698;2022-08-19T12:33:47;1.85;;;0.90;;
46717;SDS011;32448;44.960;-0.698;2022-08-19T12:36:14;0.80;;;0.80;;
46717;SDS011;32448;44.960;-0.698;2022-08-19T12:38:49;1.50;;;0.68;;
46717;SDS011;32448;44.960;-0.698;2022-08-19T12:41:25;0.93;;;0.60;;
46717;SDS011;32448;44.960;-0.698;2022-08-19T12:43:51;1.08;;;0.60;;
46717;SDS011;32448;44.960;-0.698;2022-08-19T12:46:18;0.85;;;0.52;;
46717;SDS011;32448;44.960;-0.698;2022-08-19T12:48:45;1.42;;;0.95;;
46717;SDS011;32448;44.960;-0.698;2022-08-19T12:51:13;2.35;;;0.98;;
46717;SDS011;32448;44.960;-0.698;2022-08-19T12:53:41;0.90;;;0.70;;
46717;SDS011;32448;44.960;-0.698;2022-08-19T12:56:10;2.53;;;0.80;;
46717;SDS011;32448;44.960;-0.698;2022-08-19T12:58:36;1.35;;;0.77;;
46717;SDS011;32448;44.960;-0.698;2022-08-19T13:01:06;1.98;;;0.82;;
46717;SDS011;32448;44.960;-0.698;2022-08-19T13:03:36;2.92;;;0.90;;
46717;SDS011;32448;44.960;-0.698;2022-08-19T13:06:03;0.77;;;0.70;;
46717;SDS011;32448;44.960;-0.698;2022-08-19T13:08:29;1.30;;;1.00;;
46717;SDS011;32448;44.960;-0.698;2022-08-19T13:10:54;3.00;;;0.90;;
46717;SDS011;32448;44.960;-0.698;2022-08-19T13:13:20;1.50;;;0.80;;
46717;SDS011;32448;44.960;-0.698;2022-08-19T13:15:46;2.30;;;0.75;;
46717;SDS011;32448;44.960;-0.698;2022-08-19T13:18:12;1.10;;;0.77;;
46717;SDS011;32448;44.960;-0.698;2022-08-19T13:20:39;0.93;;;0.60;;
46717;SDS011;32448;44.960;-0.698;2022-08-19T13:23:09;0.80;;;0.60;;
46717;SDS011;32448;44.960;-0.698;2022-08-19T13:25:35;2.17;;;0.80;;
46717;SDS011;32448;44.960;-0.698;2022-08-19T13:28:02;1.67;;;0.60;;
46717;SDS011;32448;44.960;-0.698;2022-08-19T13:30:29;1.70;;;0.70;;
46717;SDS011;32448;44.960;-0.698;2022-08-19T13:33:13;1.15;;;0.82;;
46717;SDS011;32448;44.960;-0.698;2022-08-19T13:35:56;3.22;;;0.80;;
46717;SDS011;32448;44.960;-0.698;2022-08-19T13:38:25;2.33;;;0.80;;
46717;SDS011;32448;44.960;-0.698;2022-08-19T13:40:52;1.17;;;0.88;;
46717;SDS011;32448;44.960;-0.698;2022-08-19T13:43:25;2.80;;;0.70;;
46717;SDS011;32448;44.960;-0.698;2022-08-19T13:45:52;1.30;;;0.90;;
46717;SDS011;32448;44.960;-0.698;2022-08-19T13:48:21;1.83;;;0.80;;
46717;SDS011;32448;44.960;-0.698;2022-08-19T13:50:47;4.18;;;1.15;;
46717;SDS011;32448;44.960;-0.698;2022-08-19T13:53:13;2.13;;;0.85;;
46717;SDS011;32448;44.960;-0.698;2022-08-19T13:55:40;2.70;;;0.88;;
46717;SDS011;32448;44.960;-0.698;2022-08-19T13:58:08;1.80;;;0.98;;
46717;SDS011;32448;44.960;-0.698;2022-08-19T14:00:41;4.20;;;0.93;;
46717;SDS011;32448;44.960;-0.698;2022-08-19T14:03:09;2.85;;;0.88;;
46717;SDS011;32448;44.960;-0.698;2022-08-19T14:05:35;0.90;;;0.90;;
46717;SDS011;32448;44.960;-0.698;2022-08-19T14:08:02;0.70;;;0.70;;
46717;SDS011;32448;44.960;-0.698;2022-08-19T14:10:28;1.48;;;0.68;;
46717;SDS011;32448;44.960;-0.698;2022-08-19T14:12:56;2.08;;;0.93;;
46717;SDS011;32448;44.960;-0.698;2022-08-19T14:15:27;2.03;;;0.90;;
46717;SDS011;32448;44.960;-0.698;2022-08-19T14:17:56;1.73;;;0.98;;
46717;SDS011;32448;44.960;-0.698;2022-08-19T14:20:22;2.92;;;1.00;;
46717;SDS011;32448;44.960;-0.698;2022-08-19T14:22:51;4.40;;;0.90;;
46717;SDS011;32448;44.960;-0.698;2022-08-19T14:25:20;1.38;;;1.00;;
46717;SDS011;32448;44.960;-0.698;2022-08-19T14:27:48;1.83;;;0.90;;
46717;SDS011;32448;44.960;-0.698;2022-08-19T14:30:16;4.75;;;1.20;;
46717;SDS011;32448;44.960;-0.698;2022-08-19T14:32:44;2.58;;;1.10;;
46717;SDS011;32448;44.960;-0.698;2022-08-19T14:35:11;2.50;;;0.90;;
46717;SDS011;32448;44.960;-0.698;2022-08-19T14:37:38;1.08;;;0.77;;
46717;SDS011;32448;44.960;-0.698;2022-08-19T14:40:05;2.88;;;0.90;;
46717;SDS011;32448;44.960;-0.698;2022-08-19T14:42:31;1.42;;;0.80;;
46717;SDS011;32448;44.960;-0.698;2022-08-19T14:44:59;2.17;;;1.17;;
46717;SDS011;32448;44.960;-0.698;2022-08-19T14:47:26;0.95;;;0.75;;
46717;SDS011;32448;44.960;-0.698;2022-08-19T14:49:52;1.77;;;0.50;;
46717;SDS011;32448;44.960;-0.698;2022-08-19T14:52:18;1.20;;;0.32;;
46717;SDS011;32448;44.960;-0.698;2022-08-19T14:54:44;0.40;;;0.40;;
46717;SDS011;32448;44.960;-0.698;2022-08-19T14:57:14;0.55;;;0.30;;
46717;SDS011;32448;44.960;-0.698;2022-08-19T14:59:41;1.55;;;0.30;;